createdAt,value
2018-04-08T00:00:26.275Z,17.10
2018-04-08T00:00:57.935Z,17.77
2018-04-08T00:01:29.556Z,16.80
2018-04-08T00:02:01.193Z,18.62
2018-04-08T00:02:32.857Z,18.00
2018-04-08T00:03:04.502Z,16.98
2018-04-08T00:03:36.137Z,18.98
2018-04-08T00:04:07.772Z,19.42
2018-04-08T00:04:39.407Z,17.98
2018-04-08T00:05:11.043Z,21.58
2018-04-08T00:05:42.700Z,18.45
2018-04-08T00:06:14.367Z,18.83
2018-04-08T00:06:46.054Z,18.02
2018-04-08T00:07:17.733Z,19.08
2018-04-08T00:07:49.393Z,19.87
2018-04-08T00:08:21.051Z,18.25
2018-04-08T00:08:52.703Z,17.87
2018-04-08T00:09:24.347Z,17.87
2018-04-08T00:09:56.018Z,19.40
2018-04-08T00:10:27.657Z,17.23
2018-04-08T00:10:59.288Z,19.45
2018-04-08T00:11:30.936Z,21.45
2018-04-08T00:12:02.593Z,19.95
2018-04-08T00:12:34.226Z,22.02
2018-04-08T00:13:05.906Z,19.50
2018-04-08T00:13:37.543Z,18.95
2018-04-08T00:14:09.175Z,19.58
2018-04-08T00:14:40.813Z,22.25
2018-04-08T00:15:12.448Z,20.15
2018-04-08T00:15:44.117Z,17.70
2018-04-08T00:16:15.733Z,18.92
2018-04-08T00:16:47.345Z,21.05
2018-04-08T00:17:18.974Z,23.10
2018-04-08T00:17:50.589Z,21.83
2018-04-08T00:18:22.276Z,19.83
2018-04-08T00:18:53.943Z,19.92
2018-04-08T00:19:25.571Z,18.92
2018-04-08T00:19:57.222Z,20.08
2018-04-08T00:20:28.887Z,21.40
2018-04-08T00:21:00.533Z,21.08
2018-04-08T00:21:32.208Z,18.90
2018-04-08T00:22:03.889Z,19.60
2018-04-08T00:22:35.577Z,22.83
2018-04-08T00:23:07.236Z,16.75
2018-04-08T00:23:38.889Z,19.00
2018-04-08T00:24:10.535Z,16.87
2018-04-08T00:24:42.184Z,16.85
2018-04-08T00:25:13.879Z,16.73
2018-04-08T00:25:45.509Z,22.65
2018-04-08T00:26:17.170Z,16.90
2018-04-08T00:26:48.815Z,16.60
2018-04-08T00:27:20.457Z,23.65
2018-04-08T00:27:52.092Z,17.98
2018-04-08T00:28:23.737Z,18.20
2018-04-08T00:28:55.365Z,18.98
2018-04-08T00:29:27.032Z,17.27
2018-04-08T00:29:58.653Z,21.12
2018-04-08T00:30:30.277Z,19.05
2018-04-08T00:31:01.913Z,17.62
2018-04-08T00:31:33.540Z,18.83
2018-04-08T00:32:05.176Z,18.50
2018-04-08T00:32:36.796Z,22.20
2018-04-08T00:33:08.431Z,21.42
2018-04-08T00:33:40.062Z,20.98
2018-04-08T00:34:11.693Z,20.35
2018-04-08T00:34:43.312Z,17.92
2018-04-08T00:35:15.003Z,18.55
2018-04-08T00:35:46.682Z,18.90
2018-04-08T00:36:18.417Z,28.62
2018-04-08T00:36:50.058Z,22.08
2018-04-08T00:37:21.749Z,18.90
2018-04-08T00:37:53.412Z,19.48
2018-04-08T00:38:25.080Z,18.73
2018-04-08T00:38:56.741Z,23.35
2018-04-08T00:39:28.373Z,18.98
2018-04-08T00:40:00.004Z,18.90
2018-04-08T00:40:31.638Z,17.15
2018-04-08T00:41:03.286Z,20.65
2018-04-08T00:41:34.916Z,18.58
2018-04-08T00:42:06.574Z,17.70
2018-04-08T00:42:38.201Z,18.70
2018-04-08T00:43:09.860Z,21.23
2018-04-08T00:43:41.494Z,20.35
2018-04-08T00:44:13.123Z,23.80
2018-04-08T00:44:44.777Z,19.23
2018-04-08T00:45:16.437Z,20.00
2018-04-08T00:45:48.152Z,18.70
2018-04-08T00:46:19.860Z,18.52
2018-04-08T00:46:51.501Z,21.35
2018-04-08T00:47:23.143Z,18.60
2018-04-08T00:47:54.786Z,21.00
2018-04-08T00:48:26.457Z,23.52
2018-04-08T00:48:58.153Z,20.67
2018-04-08T00:49:29.841Z,18.58
2018-04-08T00:50:01.520Z,19.08
2018-04-08T00:50:33.227Z,16.27
2018-04-08T00:51:04.876Z,18.87
2018-04-08T00:51:36.558Z,22.17
2018-04-08T00:52:08.250Z,17.00
2018-04-08T00:52:39.928Z,22.75
2018-04-08T00:53:11.617Z,21.37
2018-04-08T00:53:43.296Z,18.70
2018-04-08T00:54:29.342Z,20.02
2018-04-08T00:55:00.976Z,21.85
2018-04-08T00:55:32.533Z,19.02
2018-04-08T00:56:04.173Z,17.95
2018-04-08T00:56:35.764Z,22.00
2018-04-08T00:57:07.341Z,20.73
2018-04-08T00:57:38.921Z,20.95
2018-04-08T00:58:10.482Z,19.58
2018-04-08T00:58:42.093Z,21.67
2018-04-08T00:59:13.701Z,20.55
2018-04-08T00:59:45.284Z,22.40
2018-04-08T01:00:16.870Z,19.00
2018-04-08T01:00:48.466Z,22.87
2018-04-08T01:01:20.054Z,20.02
2018-04-08T01:01:51.677Z,19.12
2018-04-08T01:02:23.267Z,21.75
2018-04-08T01:02:54.826Z,20.52
2018-04-08T01:03:26.425Z,19.55
2018-04-08T01:03:57.987Z,20.00
2018-04-08T01:04:29.564Z,23.17
2018-04-08T01:05:01.133Z,20.23
2018-04-08T01:05:32.746Z,18.98
2018-04-08T01:06:04.286Z,22.77
2018-04-08T01:06:35.856Z,24.55
2018-04-08T01:07:07.441Z,21.85
2018-04-08T01:07:38.998Z,20.08
2018-04-08T01:08:10.567Z,17.40
2018-04-08T01:08:42.157Z,22.02
2018-04-08T01:09:13.731Z,23.25
2018-04-08T01:09:45.256Z,19.98
2018-04-08T01:10:16.828Z,17.60
2018-04-08T01:10:48.376Z,18.75
2018-04-08T01:11:19.972Z,19.87
2018-04-08T01:11:51.522Z,22.30
2018-04-08T01:12:23.061Z,19.27
2018-04-08T01:12:54.608Z,22.33
2018-04-08T01:13:26.151Z,22.90
2018-04-08T01:13:57.727Z,22.58
2018-04-08T01:14:29.286Z,21.30
2018-04-08T01:15:00.857Z,19.83
2018-04-08T01:15:32.428Z,20.33
2018-04-08T01:16:04.091Z,24.40
2018-04-08T01:16:35.639Z,23.95
2018-04-08T01:17:07.302Z,21.58
2018-04-08T01:17:38.943Z,17.98
2018-04-08T01:18:10.612Z,20.60
2018-04-08T01:18:42.288Z,22.25
2018-04-08T01:19:13.956Z,21.33
2018-04-08T01:19:45.583Z,20.75
2018-04-08T01:20:17.230Z,20.50
2018-04-08T01:20:49.184Z,18.50
2018-04-08T01:21:20.868Z,19.37
2018-04-08T01:21:52.522Z,21.40
2018-04-08T01:22:24.168Z,22.00
2018-04-08T01:22:55.792Z,25.40
2018-04-08T01:23:27.460Z,20.75
2018-04-08T01:23:59.100Z,18.75
2018-04-08T01:24:30.751Z,20.40
2018-04-08T01:25:02.373Z,21.05
2018-04-08T01:25:34.046Z,21.17
2018-04-08T01:26:05.713Z,20.83
2018-04-08T01:26:37.521Z,24.58
2018-04-08T01:27:09.179Z,24.30
2018-04-08T01:27:40.818Z,22.15
2018-04-08T01:28:12.480Z,20.65
2018-04-08T01:28:44.146Z,22.65
2018-04-08T01:29:15.788Z,19.20
2018-04-08T01:29:47.428Z,22.73
2018-04-08T01:30:19.148Z,22.00
2018-04-08T01:30:50.808Z,21.08
2018-04-08T01:31:22.443Z,22.17
2018-04-08T01:31:54.090Z,19.58
2018-04-08T01:32:25.732Z,21.83
2018-04-08T01:32:57.381Z,20.90
2018-04-08T01:33:29.002Z,20.40
2018-04-08T01:34:00.648Z,18.23
2018-04-08T01:34:32.286Z,20.70
2018-04-08T01:35:03.964Z,18.27
2018-04-08T01:35:35.655Z,18.27
2018-04-08T01:36:07.320Z,19.33
2018-04-08T01:36:39.041Z,20.25
2018-04-08T01:37:10.753Z,25.20
2018-04-08T01:37:42.427Z,19.77
2018-04-08T01:38:14.120Z,18.30
2018-04-08T01:38:45.782Z,21.00
2018-04-08T01:39:17.444Z,21.87
2018-04-08T01:39:49.093Z,22.13
2018-04-08T01:40:20.769Z,20.83
2018-04-08T01:40:52.384Z,21.77
2018-04-08T01:41:24.073Z,17.50
2018-04-08T01:41:55.724Z,22.90
2018-04-08T01:42:27.352Z,22.95
2018-04-08T01:42:59.044Z,23.33
2018-04-08T01:43:30.696Z,18.15
2018-04-08T01:44:02.464Z,19.10
2018-04-08T01:44:34.146Z,19.55
2018-04-08T01:45:05.811Z,21.23
2018-04-08T01:45:37.458Z,20.25
2018-04-08T01:46:09.112Z,21.35
2018-04-08T01:46:40.746Z,20.23
2018-04-08T01:47:12.468Z,18.65
2018-04-08T01:47:44.076Z,26.65
2018-04-08T01:48:15.684Z,21.45
2018-04-08T01:48:47.310Z,27.55
2018-04-08T01:49:18.972Z,19.50
2018-04-08T01:49:50.664Z,25.10
2018-04-08T01:50:22.270Z,26.83
2018-04-08T01:50:53.891Z,22.30
2018-04-08T01:51:25.545Z,24.75
2018-04-08T01:51:57.164Z,22.90
2018-04-08T01:52:28.810Z,24.70
2018-04-08T01:53:00.449Z,20.95
2018-04-08T01:53:32.112Z,21.35
2018-04-08T01:54:03.787Z,23.48
2018-04-08T01:54:35.424Z,19.92
2018-04-08T01:55:07.108Z,21.33
2018-04-08T01:55:38.780Z,23.77
2018-04-08T01:56:10.425Z,24.27
2018-04-08T01:56:42.090Z,23.90
2018-04-08T01:57:13.726Z,20.10
2018-04-08T01:57:45.361Z,25.92
2018-04-08T01:58:16.990Z,19.87
2018-04-08T01:58:48.602Z,19.27
2018-04-08T01:59:20.254Z,25.70
2018-04-08T01:59:51.920Z,24.30
2018-04-08T02:00:23.532Z,22.73
2018-04-08T02:00:55.185Z,24.12
2018-04-08T02:01:26.876Z,20.42
2018-04-08T02:01:58.553Z,25.73
2018-04-08T02:02:30.200Z,17.98
2018-04-08T02:03:01.848Z,20.35
2018-04-08T02:03:33.552Z,22.13
2018-04-08T02:04:05.243Z,24.08
2018-04-08T02:04:36.924Z,20.50
2018-04-08T02:05:08.567Z,18.70
2018-04-08T02:05:40.166Z,20.12
2018-04-08T02:06:11.838Z,22.67
2018-04-08T02:06:43.550Z,18.42
2018-04-08T02:07:15.172Z,20.35
2018-04-08T02:07:46.836Z,22.37
2018-04-08T02:08:18.499Z,21.02
2018-04-08T02:08:50.172Z,21.02
2018-04-08T02:09:21.872Z,23.33
2018-04-08T02:09:53.495Z,20.52
2018-04-08T02:10:25.115Z,23.05
2018-04-08T02:10:56.720Z,21.65
2018-04-08T02:11:28.376Z,22.45
2018-04-08T02:12:00.021Z,23.60
2018-04-08T02:12:31.643Z,22.02
2018-04-08T02:13:03.292Z,25.88
2018-04-08T02:13:34.962Z,25.52
2018-04-08T02:14:06.587Z,25.00
2018-04-08T02:14:38.236Z,30.20
2018-04-08T02:15:09.896Z,26.58
2018-04-08T02:15:41.517Z,26.55
2018-04-08T02:16:13.163Z,25.67
2018-04-08T02:16:44.809Z,24.25
2018-04-08T02:17:16.428Z,27.60
2018-04-08T02:17:48.051Z,25.58
2018-04-08T02:18:19.668Z,25.50
2018-04-08T02:18:51.303Z,24.63
2018-04-08T02:19:22.932Z,24.55
2018-04-08T02:19:54.553Z,23.75
2018-04-08T02:20:26.202Z,29.83
2018-04-08T02:20:57.825Z,24.05
2018-04-08T02:21:29.463Z,27.35
2018-04-08T02:22:01.101Z,27.37
2018-04-08T02:22:32.755Z,25.75
2018-04-08T02:23:04.400Z,26.20
2018-04-08T02:23:36.067Z,27.87
2018-04-08T02:24:07.719Z,24.87
2018-04-08T02:24:39.508Z,23.33
2018-04-08T02:25:11.140Z,30.83
2018-04-08T02:25:42.838Z,27.73
2018-04-08T02:26:14.470Z,23.77
2018-04-08T02:26:46.095Z,26.35
2018-04-08T02:27:17.746Z,31.77
2018-04-08T02:27:49.408Z,24.87
2018-04-08T02:28:21.024Z,24.63
2018-04-08T02:28:52.626Z,24.48
2018-04-08T02:29:24.269Z,23.60
2018-04-08T02:29:55.902Z,24.80
2018-04-08T02:30:27.584Z,25.85
2018-04-08T02:30:59.251Z,23.17
2018-04-08T02:31:30.914Z,24.63
2018-04-08T02:32:02.588Z,24.80
2018-04-08T02:32:34.303Z,21.67
2018-04-08T02:33:05.936Z,21.27
2018-04-08T02:33:37.583Z,23.65
2018-04-08T02:34:09.239Z,22.33
2018-04-08T02:34:40.871Z,21.55
2018-04-08T02:35:12.581Z,22.42
2018-04-08T02:35:44.206Z,23.05
2018-04-08T02:36:15.841Z,23.62
2018-04-08T02:36:47.473Z,26.50
2018-04-08T02:37:19.121Z,22.60
2018-04-08T02:37:50.770Z,22.10
2018-04-08T02:38:22.404Z,21.85
2018-04-08T02:38:54.041Z,22.17
2018-04-08T02:39:25.695Z,19.35
2018-04-08T02:39:57.332Z,17.02
2018-04-08T02:40:28.961Z,23.58
2018-04-08T02:41:00.589Z,22.27
2018-04-08T02:41:32.207Z,23.30
2018-04-08T02:42:03.841Z,22.20
2018-04-08T02:42:35.465Z,22.02
2018-04-08T02:43:07.115Z,23.23
2018-04-08T02:43:38.796Z,20.77
2018-04-08T02:44:10.511Z,27.90
2018-04-08T02:44:42.153Z,24.23
2018-04-08T02:45:13.805Z,25.12
2018-04-08T02:45:45.463Z,22.10
2018-04-08T02:46:17.108Z,23.73
2018-04-08T02:46:48.732Z,23.52
2018-04-08T02:47:20.401Z,23.33
2018-04-08T02:47:52.040Z,22.15
2018-04-08T02:48:23.685Z,22.40
2018-04-08T02:48:55.346Z,24.05
2018-04-08T02:49:26.987Z,25.75
2018-04-08T02:49:58.618Z,22.98
2018-04-08T02:50:30.216Z,25.20
2018-04-08T02:51:01.841Z,25.70
2018-04-08T02:51:33.458Z,28.17
2018-04-08T02:52:05.128Z,27.33
2018-04-08T02:52:36.835Z,21.35
2018-04-08T02:53:08.475Z,27.23
2018-04-08T02:53:40.101Z,23.70
2018-04-08T02:54:11.755Z,26.50
2018-04-08T02:54:43.412Z,26.20
2018-04-08T02:55:15.048Z,34.85
2018-04-08T02:55:46.727Z,26.42
2018-04-08T02:56:18.423Z,28.30
2018-04-08T02:56:50.068Z,29.73
2018-04-08T02:57:21.727Z,24.58
2018-04-08T02:57:53.415Z,28.90
2018-04-08T02:58:25.047Z,26.48
2018-04-08T02:58:56.690Z,25.95
2018-04-08T02:59:28.336Z,25.85
2018-04-08T02:59:59.958Z,26.95
2018-04-08T03:00:31.592Z,25.73
2018-04-08T03:01:03.252Z,27.83
2018-04-08T03:01:34.877Z,23.87
2018-04-08T03:02:06.508Z,24.42
2018-04-08T03:02:38.143Z,26.83
2018-04-08T03:03:09.778Z,34.13
2018-04-08T03:03:41.400Z,27.70
2018-04-08T03:04:13.074Z,27.17
2018-04-08T03:04:44.759Z,32.33
2018-04-08T03:05:16.400Z,28.65
2018-04-08T03:05:48.029Z,30.15
2018-04-08T03:06:19.698Z,30.45
2018-04-08T03:06:51.382Z,31.40
2018-04-08T03:07:23.049Z,33.90
2018-04-08T03:07:54.673Z,28.90
2018-04-08T03:08:26.295Z,28.70
2018-04-08T03:08:58.014Z,27.35
2018-04-08T03:09:29.659Z,28.70
2018-04-08T03:10:01.279Z,29.87
2018-04-08T03:10:32.940Z,27.75
2018-04-08T03:11:04.638Z,30.95
2018-04-08T03:11:36.268Z,25.45
2018-04-08T03:12:07.931Z,25.15
2018-04-08T03:12:39.681Z,23.50
2018-04-08T03:13:11.331Z,28.12
2018-04-08T03:13:42.984Z,27.00
2018-04-08T03:14:14.621Z,25.98
2018-04-08T03:14:46.264Z,23.95
2018-04-08T03:15:17.891Z,24.70
2018-04-08T03:15:49.570Z,30.62
2018-04-08T03:16:21.225Z,28.27
2018-04-08T03:16:52.896Z,29.35
2018-04-08T03:17:24.558Z,26.23
2018-04-08T03:17:56.289Z,26.27
2018-04-08T03:18:27.950Z,27.45
2018-04-08T03:18:59.580Z,25.30
2018-04-08T03:19:31.273Z,26.73
2018-04-08T03:20:02.964Z,28.60
2018-04-08T03:20:34.579Z,34.60
2018-04-08T03:21:06.208Z,29.48
2018-04-08T03:21:37.836Z,30.02
2018-04-08T03:22:09.489Z,31.40
2018-04-08T03:22:41.118Z,29.10
2018-04-08T03:23:12.746Z,29.60
2018-04-08T03:23:44.386Z,33.63
2018-04-08T03:24:16.010Z,29.17
2018-04-08T03:24:47.641Z,30.30
2018-04-08T03:25:19.288Z,30.55
2018-04-08T03:25:50.900Z,36.42
2018-04-08T03:26:22.532Z,29.95
2018-04-08T03:26:54.230Z,35.55
2018-04-08T03:27:25.862Z,35.30
2018-04-08T03:27:57.486Z,34.20
2018-04-08T03:28:29.140Z,30.85
2018-04-08T03:29:00.773Z,38.70
2018-04-08T03:29:32.404Z,34.72
2018-04-08T03:30:04.071Z,36.25
2018-04-08T03:30:35.706Z,31.67
2018-04-08T03:31:07.406Z,36.63
2018-04-08T03:31:39.035Z,34.38
2018-04-08T03:32:10.719Z,32.20
2018-04-08T03:32:42.406Z,35.60
2018-04-08T03:33:14.062Z,29.60
2018-04-08T03:33:45.674Z,32.95
2018-04-08T03:34:17.349Z,32.55
2018-04-08T03:34:48.972Z,32.50
2018-04-08T03:35:20.595Z,34.15
2018-04-08T03:35:52.212Z,30.73
2018-04-08T03:36:23.846Z,35.45
2018-04-08T03:36:55.477Z,29.92
2018-04-08T03:37:27.094Z,33.30
2018-04-08T03:37:58.766Z,34.00
2018-04-08T03:38:30.422Z,32.20
2018-04-08T03:39:02.152Z,31.00
2018-04-08T03:39:33.814Z,30.55
2018-04-08T03:40:05.488Z,30.95
2018-04-08T03:40:37.123Z,32.22
2018-04-08T03:41:08.762Z,30.83
2018-04-08T03:41:40.397Z,33.05
2018-04-08T03:42:12.027Z,34.80
2018-04-08T03:42:43.637Z,30.95
2018-04-08T03:43:15.308Z,37.60
2018-04-08T03:43:46.944Z,34.25
2018-04-08T03:44:18.597Z,34.63
2018-04-08T03:44:50.248Z,32.97
2018-04-08T03:45:21.872Z,34.30
2018-04-08T03:45:53.515Z,34.55
2018-04-08T03:46:25.206Z,32.63
2018-04-08T03:46:56.850Z,32.60
2018-04-08T03:47:28.476Z,33.15
2018-04-08T03:48:00.120Z,34.15
2018-04-08T03:48:31.769Z,30.90
2018-04-08T03:49:03.480Z,33.58
2018-04-08T03:49:35.172Z,37.92
2018-04-08T03:50:06.790Z,37.08
2018-04-08T03:50:38.428Z,36.40
2018-04-08T03:51:10.063Z,37.78
2018-04-08T03:51:41.734Z,42.35
2018-04-08T03:52:13.437Z,39.80
2018-04-08T03:52:45.055Z,38.58
2018-04-08T03:53:16.716Z,35.47
2018-04-08T03:53:48.426Z,32.00
2018-04-08T03:54:20.122Z,33.10
2018-04-08T03:54:51.744Z,39.20
2018-04-08T03:55:23.382Z,36.55
2018-04-08T03:55:55.026Z,34.33
2018-04-08T03:56:26.684Z,35.40
2018-04-08T03:56:58.360Z,37.78
2018-04-08T03:57:30.041Z,33.42
2018-04-08T03:58:01.712Z,34.05
2018-04-08T03:58:33.342Z,35.05
2018-04-08T03:59:05.042Z,33.30
2018-04-08T03:59:36.708Z,30.20
2018-04-08T04:00:08.399Z,35.65
2018-04-08T04:00:40.069Z,34.35
2018-04-08T04:01:11.743Z,36.33
2018-04-08T04:01:43.395Z,40.40
2018-04-08T04:02:15.044Z,39.53
2018-04-08T04:02:46.672Z,37.85
2018-04-08T04:03:18.324Z,36.97
2018-04-08T04:03:49.949Z,32.70
2018-04-08T04:04:21.618Z,36.95
2018-04-08T04:04:53.293Z,36.75
2018-04-08T04:05:24.959Z,37.72
2018-04-08T04:05:56.646Z,41.75
2018-04-08T04:06:28.360Z,34.05
2018-04-08T04:07:00.032Z,42.13
2018-04-08T04:07:31.680Z,36.35
2018-04-08T04:08:03.331Z,39.63
2018-04-08T04:08:35.001Z,37.85
2018-04-08T04:09:06.651Z,35.28
2018-04-08T04:09:38.284Z,32.55
2018-04-08T04:10:09.911Z,37.72
2018-04-08T04:10:41.600Z,34.10
2018-04-08T04:11:13.271Z,35.25
2018-04-08T04:11:44.930Z,43.55
2018-04-08T04:12:16.593Z,36.50
2018-04-08T04:12:52.154Z,38.03
2018-04-08T04:13:23.827Z,37.33
2018-04-08T04:13:55.476Z,35.08
2018-04-08T04:14:27.128Z,40.80
2018-04-08T04:14:58.792Z,34.45
2018-04-08T04:15:30.496Z,34.80
2018-04-08T04:16:02.171Z,38.53
2018-04-08T04:16:33.868Z,38.80
2018-04-08T04:17:05.515Z,42.30
2018-04-08T04:17:37.142Z,39.35
2018-04-08T04:18:27.121Z,36.75
2018-04-08T04:19:17.116Z,34.97
2018-04-08T04:20:22.062Z,38.78
2018-04-08T04:21:12.374Z,39.08
2018-04-08T04:22:02.284Z,43.30
2018-04-08T04:22:52.414Z,41.37
2018-04-08T04:23:42.568Z,41.50
2018-04-08T04:25:57.178Z,42.22
2018-04-08T04:27:15.942Z,40.22
2018-04-08T04:27:47.594Z,41.45
2018-04-08T04:28:19.242Z,35.03
2018-04-08T04:28:51.026Z,37.85
2018-04-08T04:29:22.728Z,36.75
2018-04-08T04:29:54.410Z,36.42
2018-04-08T04:30:26.048Z,37.95
2018-04-08T04:30:57.747Z,39.65
2018-04-08T04:31:29.488Z,37.67
2018-04-08T04:32:01.173Z,39.15
2018-04-08T04:32:32.814Z,43.83
2018-04-08T04:33:04.454Z,39.60
2018-04-08T04:33:36.124Z,34.38
2018-04-08T04:34:07.775Z,38.55
2018-04-08T04:34:39.452Z,33.90
2018-04-08T04:35:11.107Z,34.72
2018-04-08T04:35:42.808Z,38.50
2018-04-08T04:36:14.454Z,43.17
2018-04-08T04:36:46.098Z,43.03
2018-04-08T04:37:17.812Z,34.95
2018-04-08T04:37:49.460Z,42.30
2018-04-08T04:38:21.090Z,40.08
2018-04-08T04:38:52.732Z,35.80
2018-04-08T04:39:24.384Z,39.92
2018-04-08T04:39:56.000Z,40.10
2018-04-08T04:40:27.624Z,43.03
2018-04-08T04:40:59.276Z,42.60
2018-04-08T04:41:30.926Z,41.55
2018-04-08T04:42:02.612Z,42.15
2018-04-08T04:42:34.322Z,36.70
2018-04-08T04:43:05.941Z,36.35
2018-04-08T04:43:37.602Z,39.33
2018-04-08T04:44:09.238Z,38.67
2018-04-08T04:44:40.870Z,41.20
2018-04-08T04:45:12.502Z,42.03
2018-04-08T04:45:44.116Z,38.85
2018-04-08T04:46:15.740Z,39.38
2018-04-08T04:46:47.400Z,37.72
2018-04-08T04:47:19.036Z,40.88
2018-04-08T04:47:50.660Z,44.40
2018-04-08T04:48:22.273Z,41.20
2018-04-08T04:48:53.915Z,40.65
2018-04-08T04:49:25.578Z,40.65
2018-04-08T04:49:57.247Z,38.00
2018-04-08T04:50:28.865Z,37.67
2018-04-08T04:51:00.504Z,35.08
2018-04-08T04:51:32.152Z,37.90
2018-04-08T04:52:03.791Z,39.38
2018-04-08T04:52:35.443Z,35.40
2018-04-08T04:53:07.077Z,34.67
2018-04-08T04:53:38.682Z,39.40
2018-04-08T04:54:10.346Z,34.33
2018-04-08T04:54:41.990Z,38.35
2018-04-08T04:55:13.622Z,33.90
2018-04-08T04:55:45.318Z,42.00
2018-04-08T04:56:17.010Z,39.67
2018-04-08T04:56:48.668Z,40.05
2018-04-08T04:57:20.288Z,37.65
2018-04-08T04:57:51.936Z,35.72
2018-04-08T04:58:23.574Z,44.95
2018-04-08T04:58:55.206Z,36.70
2018-04-08T04:59:26.832Z,37.35
2018-04-08T04:59:58.470Z,43.97
2018-04-08T05:00:30.184Z,36.78
2018-04-08T05:01:01.840Z,37.42
2018-04-08T05:01:33.494Z,39.80
2018-04-08T05:02:05.121Z,36.05
2018-04-08T05:02:36.742Z,39.17
2018-04-08T05:03:08.432Z,38.63
2018-04-08T05:03:40.125Z,39.90
2018-04-08T05:04:11.788Z,36.67
2018-04-08T05:04:43.460Z,38.10
2018-04-08T05:05:15.139Z,38.83
2018-04-08T05:05:46.784Z,38.33
2018-04-08T05:06:18.432Z,38.83
2018-04-08T05:06:50.068Z,41.17
2018-04-08T05:07:21.676Z,39.05
2018-04-08T05:07:53.308Z,38.70
2018-04-08T05:08:24.930Z,38.28
2018-04-08T05:08:56.569Z,37.55
2018-04-08T05:09:28.190Z,41.53
2018-04-08T05:09:59.814Z,38.85
2018-04-08T05:10:31.428Z,45.95
2018-04-08T05:11:03.072Z,41.22
2018-04-08T05:11:34.775Z,37.25
2018-04-08T05:12:06.411Z,44.40
2018-04-08T05:12:38.092Z,39.92
2018-04-08T05:13:09.754Z,42.03
2018-04-08T05:13:41.456Z,38.15
2018-04-08T05:14:13.068Z,46.85
2018-04-08T05:14:44.717Z,39.42
2018-04-08T05:15:16.364Z,48.95
2018-04-08T05:15:48.022Z,43.08
2018-04-08T05:16:19.682Z,36.47
2018-04-08T05:16:51.356Z,36.08
2018-04-08T05:17:23.008Z,37.33
2018-04-08T05:17:54.678Z,40.03
2018-04-08T05:18:26.316Z,37.95
2018-04-08T05:18:57.952Z,38.70
2018-04-08T05:19:29.592Z,38.60
2018-04-08T05:20:01.264Z,35.72
2018-04-08T05:20:32.914Z,40.00
2018-04-08T05:21:04.548Z,38.63
2018-04-08T05:21:36.196Z,38.10
2018-04-08T05:22:07.848Z,44.13
2018-04-08T05:22:39.515Z,46.33
2018-04-08T05:23:11.182Z,44.72
2018-04-08T05:23:42.836Z,41.37
2018-04-08T05:24:14.500Z,46.55
2018-04-08T05:24:46.128Z,42.60
2018-04-08T05:25:17.776Z,44.60
2018-04-08T05:25:49.433Z,42.35
2018-04-08T05:26:21.090Z,42.13
2018-04-08T05:26:52.719Z,37.47
2018-04-08T05:27:24.332Z,46.55
2018-04-08T05:27:55.952Z,41.17
2018-04-08T05:28:27.714Z,36.47
2018-04-08T05:28:59.353Z,41.80
2018-04-08T05:29:30.992Z,40.90
2018-04-08T05:30:02.658Z,35.85
2018-04-08T05:30:34.284Z,39.10
2018-04-08T05:31:05.906Z,36.42
2018-04-08T05:31:37.530Z,39.30
2018-04-08T05:32:09.184Z,38.08
2018-04-08T05:32:40.813Z,36.92
2018-04-08T05:33:12.432Z,39.88
2018-04-08T05:33:44.116Z,35.92
2018-04-08T05:34:15.744Z,38.15
2018-04-08T05:34:47.376Z,38.63
2018-04-08T05:35:19.026Z,39.95
2018-04-08T05:35:50.678Z,38.03
2018-04-08T05:36:22.342Z,38.00
2018-04-08T05:36:54.010Z,36.38
2018-04-08T05:37:25.616Z,36.58
2018-04-08T05:37:57.304Z,33.72
2018-04-08T05:38:28.946Z,37.97
2018-04-08T05:39:00.594Z,40.38
2018-04-08T05:39:32.262Z,41.30
2018-04-08T05:40:03.886Z,35.05
2018-04-08T05:40:35.522Z,37.00
2018-04-08T05:41:07.124Z,39.33
2018-04-08T05:41:38.754Z,36.33
2018-04-08T05:42:10.395Z,35.05
2018-04-08T05:42:42.057Z,38.17
2018-04-08T05:43:13.672Z,42.95
2018-04-08T05:43:45.314Z,36.58
2018-04-08T05:44:16.927Z,41.10
2018-04-08T05:44:48.581Z,38.47
2018-04-08T05:45:20.217Z,41.05
2018-04-08T05:45:51.881Z,40.30
2018-04-08T05:46:23.506Z,39.63
2018-04-08T05:46:55.189Z,36.97
2018-04-08T05:47:26.839Z,38.70
2018-04-08T05:47:58.480Z,39.65
2018-04-08T05:48:30.117Z,41.45
2018-04-08T05:49:01.792Z,34.45
2018-04-08T05:49:33.491Z,35.78
2018-04-08T05:50:05.200Z,37.42
2018-04-08T05:50:36.847Z,42.90
2018-04-08T05:51:08.470Z,37.30
2018-04-08T05:51:40.146Z,39.67
2018-04-08T05:52:11.792Z,39.17
2018-04-08T05:52:43.475Z,37.42
2018-04-08T05:53:15.090Z,38.80
2018-04-08T05:53:46.714Z,36.88
2018-04-08T05:54:18.351Z,37.17
2018-04-08T05:54:50.034Z,31.65
2018-04-08T05:55:21.717Z,34.10
2018-04-08T05:55:53.312Z,34.10
2018-04-08T05:56:24.918Z,33.72
2018-04-08T05:56:56.579Z,37.53
2018-04-08T05:57:28.226Z,37.15
2018-04-08T05:57:59.870Z,38.42
2018-04-08T05:58:31.522Z,38.67
2018-04-08T05:59:03.155Z,37.15
2018-04-08T05:59:34.816Z,37.53
2018-04-08T06:00:06.432Z,39.47
2018-04-08T06:00:38.054Z,35.95
2018-04-08T06:01:09.687Z,35.92
2018-04-08T06:01:41.321Z,40.60
2018-04-08T06:02:12.997Z,36.75
2018-04-08T06:02:44.626Z,37.95
2018-04-08T06:03:16.252Z,37.78
2018-04-08T06:03:47.915Z,36.95
2018-04-08T06:04:19.578Z,35.95
2018-04-08T06:04:51.242Z,38.17
2018-04-08T06:05:22.900Z,41.60
2018-04-08T06:05:54.556Z,45.45
2018-04-08T06:06:26.228Z,36.95
2018-04-08T06:06:57.882Z,40.15
2018-04-08T06:07:29.503Z,41.75
2018-04-08T06:08:01.156Z,43.85
2018-04-08T06:08:32.800Z,38.10
2018-04-08T06:09:04.515Z,39.30
2018-04-08T06:09:36.229Z,41.25
2018-04-08T06:10:07.875Z,42.80
2018-04-08T06:10:39.555Z,38.58
2018-04-08T06:11:11.186Z,37.97
2018-04-08T06:11:42.803Z,39.55
2018-04-08T06:12:14.448Z,41.33
2018-04-08T06:12:46.087Z,38.38
2018-04-08T06:13:17.742Z,46.30
2018-04-08T06:13:49.361Z,39.83
2018-04-08T06:14:20.976Z,45.60
2018-04-08T06:14:52.638Z,45.20
2018-04-08T06:15:24.260Z,37.40
2018-04-08T06:15:55.890Z,41.88
2018-04-08T06:16:27.571Z,40.45
2018-04-08T06:16:59.236Z,40.03
2018-04-08T06:17:30.869Z,38.58
2018-04-08T06:18:02.568Z,47.40
2018-04-08T06:18:34.213Z,41.47
2018-04-08T06:19:05.841Z,45.17
2018-04-08T06:19:37.522Z,37.25
2018-04-08T06:20:09.147Z,43.78
2018-04-08T06:20:40.858Z,43.53
2018-04-08T06:21:12.498Z,38.78
2018-04-08T06:21:44.142Z,41.90
2018-04-08T06:22:15.793Z,39.50
2018-04-08T06:22:47.463Z,45.20
2018-04-08T06:23:19.145Z,41.70
2018-04-08T06:23:50.858Z,38.40
2018-04-08T06:24:22.594Z,39.75
2018-04-08T06:24:54.310Z,41.72
2018-04-08T06:25:25.953Z,45.17
2018-04-08T06:25:57.611Z,39.00
2018-04-08T06:26:29.262Z,38.72
2018-04-08T06:27:00.910Z,39.90
2018-04-08T06:27:32.558Z,43.42
2018-04-08T06:28:04.277Z,39.38
2018-04-08T06:28:35.924Z,42.35
2018-04-08T06:29:07.585Z,43.05
2018-04-08T06:29:39.210Z,45.45
2018-04-08T06:30:10.932Z,38.25
2018-04-08T06:30:42.614Z,41.60
2018-04-08T06:31:14.301Z,40.10
2018-04-08T06:31:45.961Z,44.25
2018-04-08T06:32:17.886Z,42.80
2018-04-08T06:32:49.576Z,41.83
2018-04-08T06:33:21.202Z,43.67
2018-04-08T06:33:52.827Z,38.92
2018-04-08T06:34:24.475Z,39.50
2018-04-08T06:34:56.120Z,47.83
2018-04-08T06:35:27.818Z,46.25
2018-04-08T06:35:59.503Z,40.40
2018-04-08T06:36:31.168Z,40.35
2018-04-08T06:37:02.846Z,42.92
2018-04-08T06:37:34.502Z,46.90
2018-04-08T06:38:06.231Z,40.58
2018-04-08T06:38:37.924Z,43.22
2018-04-08T06:39:09.561Z,39.33
2018-04-08T06:39:41.226Z,40.42
2018-04-08T06:40:12.882Z,42.55
2018-04-08T06:40:44.589Z,43.87
2018-04-08T06:41:16.252Z,44.40
2018-04-08T06:41:47.944Z,43.45
2018-04-08T06:42:19.596Z,39.60
2018-04-08T06:42:51.260Z,38.13
2018-04-08T06:43:22.964Z,41.88
2018-04-08T06:43:54.624Z,44.33
2018-04-08T06:44:26.259Z,40.00
2018-04-08T06:44:57.957Z,39.72
2018-04-08T06:45:29.580Z,43.30
2018-04-08T06:46:01.263Z,40.90
2018-04-08T06:46:32.889Z,44.20
2018-04-08T06:47:04.583Z,43.45
2018-04-08T06:47:36.233Z,41.65
2018-04-08T06:48:07.910Z,38.95
2018-04-08T06:48:39.539Z,42.25
2018-04-08T06:49:11.225Z,43.15
2018-04-08T06:49:42.918Z,47.70
2018-04-08T06:50:14.600Z,43.72
2018-04-08T06:50:46.295Z,44.17
2018-04-08T06:51:17.970Z,42.35
2018-04-08T06:51:49.702Z,39.38
2018-04-08T06:52:21.339Z,39.05
2018-04-08T06:52:53.023Z,45.20